sensor_id;sensor_type;location;lat;lon;timestamp;pressure;altitude;pressure_sealevel;temperature;humidity
43553;BME280;29153;42.696;23.218;2023-12-20T00:01:30;94849.75;;;-2.60;100.00
43553;BME280;29153;42.696;23.218;2023-12-20T00:03:57;94850.38;;;-2.47;100.00
43553;BME280;29153;42.696;23.218;2023-12-20T00:06:24;94855.27;;;-2.48;100.00
43553;BME280;29153;42.696;23.218;2023-12-20T00:08:52;94853.53;;;-2.62;100.00
43553;BME280;29153;42.696;23.218;2023-12-20T00:11:20;94837.55;;;-2.66;100.00
43553;BME280;29153;42.696;23.218;2023-12-20T00:13:47;94839.08;;;-2.71;100.00
43553;BME280;29153;42.696;23.218;2023-12-20T00:16:14;94830.75;;;-2.67;100.00
43553;BME280;29153;42.696;23.218;2023-12-20T00:18:42;94826.63;;;-2.61;100.00
43553;BME280;29153;42.696;23.218;2023-12-20T00:21:09;94824.09;;;-2.65;100.00
43553;BME280;29153;42.696;23.218;2023-12-20T00:23:37;94827.47;;;-2.76;100.00
43553;BME280;29153;42.696;23.218;2023-12-20T00:26:04;94819.81;;;-2.84;100.00
43553;BME280;29153;42.696;23.218;2023-12-20T00:28:32;94814.57;;;-2.80;100.00
43553;BME280;29153;42.696;23.218;2023-12-20T00:30:59;94807.80;;;-2.70;100.00
43553;BME280;29153;42.696;23.218;2023-12-20T00:33:27;94796.85;;;-2.76;100.00
43553;BME280;29153;42.696;23.218;2023-12-20T00:35:54;94799.45;;;-2.76;100.00
43553;BME280;29153;42.696;23.218;2023-12-20T00:38:21;94791.11;;;-2.71;100.00
43553;BME280;29153;42.696;23.218;2023-12-20T00:40:49;94790.61;;;-2.82;100.00
43553;BME280;29153;42.696;23.218;2023-12-20T00:43:17;94790.20;;;-2.74;100.00
43553;BME280;29153;42.696;23.218;2023-12-20T00:45:44;94776.41;;;-2.86;100.00
43553;BME280;29153;42.696;23.218;2023-12-20T00:48:12;94695.52;;;-3.45;100.00
43553;BME280;29153;42.696;23.218;2023-12-20T00:50:39;94781.28;;;-2.87;100.00
43553;BME280;29153;42.696;23.218;2023-12-20T00:53:07;94784.68;;;-2.86;100.00
43553;BME280;29153;42.696;23.218;2023-12-20T00:55:34;94781.80;;;-2.87;100.00
43553;BME280;29153;42.696;23.218;2023-12-20T00:58:02;94780.80;;;-2.86;100.00
43553;BME280;29153;42.696;23.218;2023-12-20T01:00:29;94773.48;;;-2.83;100.00
43553;BME280;29153;42.696;23.218;2023-12-20T01:02:56;94786.18;;;-2.88;100.00
43553;BME280;29153;42.696;23.218;2023-12-20T01:05:24;94772.27;;;-2.91;100.00
43553;BME280;29153;42.696;23.218;2023-12-20T01:07:51;94770.31;;;-2.89;100.00
43553;BME280;29153;42.696;23.218;2023-12-20T01:10:19;94764.77;;;-2.96;100.00
43553;BME280;29153;42.696;23.218;2023-12-20T01:12:46;94760.25;;;-2.98;100.00
43553;BME280;29153;42.696;23.218;2023-12-20T01:15:14;94758.14;;;-2.99;100.00
43553;BME280;29153;42.696;23.218;2023-12-20T01:17:41;94761.05;;;-2.98;100.00
43553;BME280;29153;42.696;23.218;2023-12-20T01:20:09;94758.09;;;-3.05;100.00
43553;BME280;29153;42.696;23.218;2023-12-20T01:22:37;94752.40;;;-3.15;100.00
43553;BME280;29153;42.696;23.218;2023-12-20T01:25:04;94747.97;;;-3.11;100.00
43553;BME280;29153;42.696;23.218;2023-12-20T01:27:33;94741.30;;;-2.99;100.00
43553;BME280;29153;42.696;23.218;2023-12-20T01:30:00;94739.34;;;-2.97;100.00
43553;BME280;29153;42.696;23.218;2023-12-20T01:32:28;94739.72;;;-3.00;100.00
43553;BME280;29153;42.696;23.218;2023-12-20T01:34:55;94739.33;;;-3.07;100.00
43553;BME280;29153;42.696;23.218;2023-12-20T01:37:23;94731.62;;;-3.11;100.00
43553;BME280;29153;42.696;23.218;2023-12-20T01:39:51;94738.09;;;-3.22;100.00
43553;BME280;29153;42.696;23.218;2023-12-20T01:42:19;94730.81;;;-3.12;100.00
43553;BME280;29153;42.696;23.218;2023-12-20T01:44:46;94724.27;;;-3.08;100.00
43553;BME280;29153;42.696;23.218;2023-12-20T01:47:14;94718.31;;;-3.08;100.00
43553;BME280;29153;42.696;23.218;2023-12-20T01:49:42;94713.34;;;-3.25;100.00
43553;BME280;29153;42.696;23.218;2023-12-20T01:52:09;94715.05;;;-3.17;100.00
43553;BME280;29153;42.696;23.218;2023-12-20T01:54:38;94716.08;;;-3.22;100.00
43553;BME280;29153;42.696;23.218;2023-12-20T01:57:06;94711.94;;;-3.27;100.00
43553;BME280;29153;42.696;23.218;2023-12-20T01:59:34;94707.88;;;-3.26;100.00
43553;BME280;29153;42.696;23.218;2023-12-20T02:02:03;94703.48;;;-3.25;100.00
43553;BME280;29153;42.696;23.218;2023-12-20T02:04:31;94701.20;;;-3.24;100.00
43553;BME280;29153;42.696;23.218;2023-12-20T02:06:59;94700.34;;;-3.31;100.00
43553;BME280;29153;42.696;23.218;2023-12-20T02:09:27;94700.81;;;-3.42;100.00
43553;BME280;29153;42.696;23.218;2023-12-20T02:11:54;94701.13;;;-3.52;100.00
43553;BME280;29153;42.696;23.218;2023-12-20T02:14:22;94694.77;;;-3.49;100.00
43553;BME280;29153;42.696;23.218;2023-12-20T02:16:49;94694.45;;;-3.50;100.00
43553;BME280;29153;42.696;23.218;2023-12-20T02:19:18;94687.44;;;-3.46;100.00
43553;BME280;29153;42.696;23.218;2023-12-20T02:21:47;94678.89;;;-3.36;100.00
43553;BME280;29153;42.696;23.218;2023-12-20T02:24:14;94679.38;;;-3.36;100.00
43553;BME280;29153;42.696;23.218;2023-12-20T02:26:43;94675.30;;;-3.45;100.00
43553;BME280;29153;42.696;23.218;2023-12-20T02:29:10;94677.16;;;-3.39;100.00
43553;BME280;29153;42.696;23.218;2023-12-20T02:31:38;94673.59;;;-3.38;100.00
43553;BME280;29153;42.696;23.218;2023-12-20T02:34:05;94670.42;;;-3.34;100.00
43553;BME280;29153;42.696;23.218;2023-12-20T02:36:32;94665.07;;;-3.32;100.00
43553;BME280;29153;42.696;23.218;2023-12-20T02:39:00;94664.22;;;-3.39;100.00
43553;BME280;29153;42.696;23.218;2023-12-20T02:41:27;94659.84;;;-3.39;100.00
43553;BME280;29153;42.696;23.218;2023-12-20T02:43:55;94655.08;;;-3.56;100.00
43553;BME280;29153;42.696;23.218;2023-12-20T02:46:23;94654.77;;;-3.57;100.00
43553;BME280;29153;42.696;23.218;2023-12-20T02:48:51;94658.05;;;-3.59;100.00
43553;BME280;29153;42.696;23.218;2023-12-20T02:51:18;94656.78;;;-3.63;100.00
43553;BME280;29153;42.696;23.218;2023-12-20T02:53:45;94655.45;;;-3.59;100.00
43553;BME280;29153;42.696;23.218;2023-12-20T02:56:13;94653.33;;;-3.71;100.00
43553;BME280;29153;42.696;23.218;2023-12-20T02:58:40;94655.45;;;-3.59;100.00
43553;BME280;29153;42.696;23.218;2023-12-20T03:01:08;94652.60;;;-3.54;100.00
43553;BME280;29153;42.696;23.218;2023-12-20T03:03:36;94652.30;;;-3.65;100.00
43553;BME280;29153;42.696;23.218;2023-12-20T03:06:03;94646.08;;;-3.60;100.00
43553;BME280;29153;42.696;23.218;2023-12-20T03:08:31;94652.23;;;-3.61;100.00
43553;BME280;29153;42.696;23.218;2023-12-20T03:11:00;94646.69;;;-3.69;100.00
43553;BME280;29153;42.696;23.218;2023-12-20T03:13:27;94652.17;;;-3.68;100.00
43553;BME280;29153;42.696;23.218;2023-12-20T03:15:54;94647.14;;;-3.91;100.00
43553;BME280;29153;42.696;23.218;2023-12-20T03:18:22;94647.05;;;-3.97;100.00
43553;BME280;29153;42.696;23.218;2023-12-20T03:20:49;94646.45;;;-3.89;100.00
43553;BME280;29153;42.696;23.218;2023-12-20T03:23:17;94648.54;;;-3.99;100.00
43553;BME280;29153;42.696;23.218;2023-12-20T03:25:45;94638.73;;;-4.03;100.00
43553;BME280;29153;42.696;23.218;2023-12-20T03:28:14;94638.89;;;-3.90;100.00
43553;BME280;29153;42.696;23.218;2023-12-20T03:30:42;94643.05;;;-3.89;100.00
43553;BME280;29153;42.696;23.218;2023-12-20T03:33:09;94629.03;;;-3.91;100.00
43553;BME280;29153;42.696;23.218;2023-12-20T03:35:37;94627.84;;;-3.99;100.00
43553;BME280;29153;42.696;23.218;2023-12-20T03:38:04;94630.38;;;-3.95;100.00
43553;BME280;29153;42.696;23.218;2023-12-20T03:40:32;94623.16;;;-3.99;100.00
43553;BME280;29153;42.696;23.218;2023-12-20T03:42:59;94630.44;;;-3.99;100.00
43553;BME280;29153;42.696;23.218;2023-12-20T03:45:27;94626.23;;;-4.00;100.00
43553;BME280;29153;42.696;23.218;2023-12-20T03:47:54;94623.77;;;-3.97;100.00
43553;BME280;29153;42.696;23.218;2023-12-20T03:50:23;94627.86;;;-4.14;100.00
43553;BME280;29153;42.696;23.218;2023-12-20T03:52:50;94627.49;;;-4.10;100.00
43553;BME280;29153;42.696;23.218;2023-12-20T03:55:18;94565.69;;;-4.41;100.00
43553;BME280;29153;42.696;23.218;2023-12-20T03:57:45;94625.31;;;-4.03;100.00
43553;BME280;29153;42.696;23.218;2023-12-20T04:00:13;94620.48;;;-4.06;100.00
43553;BME280;29153;42.696;23.218;2023-12-20T04:02:42;94618.91;;;-4.07;100.00
43553;BME280;29153;42.696;23.218;2023-12-20T04:05:10;94612.06;;;-4.04;100.00
43553;BME280;29153;42.696;23.218;2023-12-20T04:07:37;94613.15;;;-4.13;100.00
43553;BME280;29153;42.696;23.218;2023-12-20T04:10:05;94603.72;;;-4.10;100.00
43553;BME280;29153;42.696;23.218;2023-12-20T04:12:33;94596.39;;;-4.17;100.00
43553;BME280;29153;42.696;23.218;2023-12-20T04:15:00;94599.78;;;-4.17;100.00
43553;BME280;29153;42.696;23.218;2023-12-20T04:17:30;94592.09;;;-4.10;100.00
43553;BME280;29153;42.696;23.218;2023-12-20T04:19:57;94593.75;;;-4.13;100.00
43553;BME280;29153;42.696;23.218;2023-12-20T04:22:24;94590.09;;;-4.29;100.00
43553;BME280;29153;42.696;23.218;2023-12-20T04:24:52;94597.05;;;-4.19;100.00
43553;BME280;29153;42.696;23.218;2023-12-20T04:27:19;94593.86;;;-4.21;100.00
43553;BME280;29153;42.696;23.218;2023-12-20T04:29:47;94592.88;;;-4.20;100.00
43553;BME280;29153;42.696;23.218;2023-12-20T04:32:14;94579.55;;;-4.28;100.00
43553;BME280;29153;42.696;23.218;2023-12-20T04:34:42;94583.69;;;-4.23;100.00
43553;BME280;29153;42.696;23.218;2023-12-20T04:37:09;94583.42;;;-4.28;100.00
43553;BME280;29153;42.696;23.218;2023-12-20T04:39:37;94578.08;;;-4.26;100.00
43553;BME280;29153;42.696;23.218;2023-12-20T04:42:04;94578.50;;;-4.33;100.00
43553;BME280;29153;42.696;23.218;2023-12-20T04:44:32;94577.37;;;-4.45;100.00
43553;BME280;29153;42.696;23.218;2023-12-20T04:46:59;94580.13;;;-4.47;100.00
43553;BME280;29153;42.696;23.218;2023-12-20T04:49:27;94581.41;;;-4.32;100.00
43553;BME280;29153;42.696;23.218;2023-12-20T04:51:55;94579.43;;;-4.30;100.00
43553;BME280;29153;42.696;23.218;2023-12-20T04:54:22;94580.88;;;-4.42;100.00
43553;BME280;29153;42.696;23.218;2023-12-20T04:56:50;94563.86;;;-4.51;100.00
43553;BME280;29153;42.696;23.218;2023-12-20T04:59:17;94579.27;;;-4.43;100.00
43553;BME280;29153;42.696;23.218;2023-12-20T05:01:45;94583.31;;;-4.30;100.00
43553;BME280;29153;42.696;23.218;2023-12-20T05:04:12;94578.23;;;-4.38;100.00
43553;BME280;29153;42.696;23.218;2023-12-20T05:06:40;94567.86;;;-4.49;100.00
43553;BME280;29153;42.696;23.218;2023-12-20T05:09:07;94567.03;;;-4.45;100.00
43553;BME280;29153;42.696;23.218;2023-12-20T05:11:35;94557.13;;;-4.31;100.00
43553;BME280;29153;42.696;23.218;2023-12-20T05:14:03;94561.06;;;-4.35;100.00
43553;BME280;29153;42.696;23.218;2023-12-20T05:16:30;94565.14;;;-4.37;100.00
43553;BME280;29153;42.696;23.218;2023-12-20T05:18:57;94561.55;;;-4.46;100.00
43553;BME280;29153;42.696;23.218;2023-12-20T05:21:26;94558.91;;;-4.42;100.00
43553;BME280;29153;42.696;23.218;2023-12-20T05:23:53;94555.08;;;-4.46;100.00
43553;BME280;29153;42.696;23.218;2023-12-20T05:26:21;94547.59;;;-4.41;100.00
43553;BME280;29153;42.696;23.218;2023-12-20T05:28:48;94544.95;;;-4.37;100.00
43553;BME280;29153;42.696;23.218;2023-12-20T05:31:16;94542.33;;;-4.48;100.00
43553;BME280;29153;42.696;23.218;2023-12-20T05:33:43;94543.45;;;-4.61;100.00
43553;BME280;29153;42.696;23.218;2023-12-20T05:36:11;94547.11;;;-4.55;100.00
43553;BME280;29153;42.696;23.218;2023-12-20T05:38:40;94538.06;;;-4.55;100.00
43553;BME280;29153;42.696;23.218;2023-12-20T05:41:07;94540.66;;;-4.55;100.00
43553;BME280;29153;42.696;23.218;2023-12-20T05:43:35;94540.44;;;-4.65;100.00
43553;BME280;29153;42.696;23.218;2023-12-20T05:46:02;94537.69;;;-4.78;100.00
43553;BME280;29153;42.696;23.218;2023-12-20T05:48:30;94539.25;;;-4.73;100.00
43553;BME280;29153;42.696;23.218;2023-12-20T05:50:58;94537.80;;;-4.61;100.00
43553;BME280;29153;42.696;23.218;2023-12-20T05:53:25;94540.97;;;-4.54;100.00
43553;BME280;29153;42.696;23.218;2023-12-20T05:55:53;94534.20;;;-4.55;100.00
43553;BME280;29153;42.696;23.218;2023-12-20T05:58:21;94535.22;;;-4.61;100.00
43553;BME280;29153;42.696;23.218;2023-12-20T06:00:48;94533.66;;;-4.66;100.00
43553;BME280;29153;42.696;23.218;2023-12-20T06:03:16;94522.30;;;-4.61;100.00
43553;BME280;29153;42.696;23.218;2023-12-20T06:05:43;94525.15;;;-4.55;100.00
43553;BME280;29153;42.696;23.218;2023-12-20T06:08:11;94526.86;;;-4.63;100.00
43553;BME280;29153;42.696;23.218;2023-12-20T06:10:38;94518.05;;;-4.57;100.00
43553;BME280;29153;42.696;23.218;2023-12-20T06:13:06;94522.98;;;-4.63;100.00
43553;BME280;29153;42.696;23.218;2023-12-20T06:15:34;94520.95;;;-4.56;100.00
43553;BME280;29153;42.696;23.218;2023-12-20T06:18:02;94523.22;;;-4.57;100.00
43553;BME280;29153;42.696;23.218;2023-12-20T06:20:29;94529.30;;;-4.65;100.00
43553;BME280;29153;42.696;23.218;2023-12-20T06:22:57;94528.91;;;-4.58;100.00
43553;BME280;29153;42.696;23.218;2023-12-20T06:25:24;94538.39;;;-4.54;100.00
43553;BME280;29153;42.696;23.218;2023-12-20T06:27:52;94533.81;;;-4.63;100.00
43553;BME280;29153;42.696;23.218;2023-12-20T06:30:19;94538.02;;;-4.51;100.00
43553;BME280;29153;42.696;23.218;2023-12-20T06:32:47;94533.43;;;-4.45;100.00
43553;BME280;29153;42.696;23.218;2023-12-20T06:35:14;94525.36;;;-4.46;100.00
43553;BME280;29153;42.696;23.218;2023-12-20T06:37:42;94531.48;;;-4.33;100.00
43553;BME280;29153;42.696;23.218;2023-12-20T06:40:10;94528.52;;;-4.30;100.00
43553;BME280;29153;42.696;23.218;2023-12-20T06:42:38;94521.20;;;-4.26;100.00
43553;BME280;29153;42.696;23.218;2023-12-20T06:45:06;94518.70;;;-4.20;100.00
43553;BME280;29153;42.696;23.218;2023-12-20T06:47:33;94516.89;;;-4.19;100.00
43553;BME280;29153;42.696;23.218;2023-12-20T06:50:01;94512.40;;;-4.10;100.00
43553;BME280;29153;42.696;23.218;2023-12-20T06:52:28;94516.41;;;-3.97;100.00
43553;BME280;29153;42.696;23.218;2023-12-20T06:54:55;94504.11;;;-3.95;100.00
43553;BME280;29153;42.696;23.218;2023-12-20T06:57:23;94494.07;;;-3.94;100.00
43553;BME280;29153;42.696;23.218;2023-12-20T06:59:52;94502.20;;;-3.87;100.00
43553;BME280;29153;42.696;23.218;2023-12-20T07:02:20;94495.28;;;-3.80;100.00
43553;BME280;29153;42.696;23.218;2023-12-20T07:04:48;94499.41;;;-3.64;100.00
43553;BME280;29153;42.696;23.218;2023-12-20T07:07:16;94498.02;;;-3.49;100.00
43553;BME280;29153;42.696;23.218;2023-12-20T07:09:43;94497.77;;;-3.54;100.00
43553;BME280;29153;42.696;23.218;2023-12-20T07:12:11;94487.81;;;-3.30;100.00
43553;BME280;29153;42.696;23.218;2023-12-20T07:14:38;94491.06;;;-3.04;100.00
43553;BME280;29153;42.696;23.218;2023-12-20T07:17:06;94483.79;;;-2.81;100.00
43553;BME280;29153;42.696;23.218;2023-12-20T07:19:34;94489.40;;;-2.53;100.00
43553;BME280;29153;42.696;23.218;2023-12-20T07:22:02;94480.23;;;-2.19;100.00
43553;BME280;29153;42.696;23.218;2023-12-20T07:24:30;94484.34;;;-2.01;100.00
43553;BME280;29153;42.696;23.218;2023-12-20T07:26:57;94483.16;;;-1.92;100.00
43553;BME280;29153;42.696;23.218;2023-12-20T07:29:25;94481.46;;;-2.02;100.00
43553;BME280;29153;42.696;23.218;2023-12-20T07:31:54;94479.45;;;-2.00;100.00
43553;BME280;29153;42.696;23.218;2023-12-20T07:34:21;94475.67;;;-1.91;100.00
43553;BME280;29153;42.696;23.218;2023-12-20T07:36:49;94473.97;;;-1.88;100.00
43553;BME280;29153;42.696;23.218;2023-12-20T07:39:16;94471.80;;;-1.84;100.00
43553;BME280;29153;42.696;23.218;2023-12-20T07:41:45;94479.28;;;-1.85;100.00
43553;BME280;29153;42.696;23.218;2023-12-20T07:44:12;94475.98;;;-1.70;100.00
43553;BME280;29153;42.696;23.218;2023-12-20T07:46:40;94479.91;;;-1.63;100.00
43553;BME280;29153;42.696;23.218;2023-12-20T07:49:07;94480.61;;;-1.59;100.00
43553;BME280;29153;42.696;23.218;2023-12-20T07:51:36;94472.30;;;-1.52;100.00
43553;BME280;29153;42.696;23.218;2023-12-20T07:54:04;94464.59;;;-1.36;100.00
43553;BME280;29153;42.696;23.218;2023-12-20T07:56:31;94464.98;;;-1.32;100.00
43553;BME280;29153;42.696;23.218;2023-12-20T07:58:59;94468.59;;;-1.20;100.00
43553;BME280;29153;42.696;23.218;2023-12-20T08:01:27;94460.19;;;-1.16;100.00
43553;BME280;29153;42.696;23.218;2023-12-20T08:03:55;94454.55;;;-1.00;100.00
43553;BME280;29153;42.696;23.218;2023-12-20T08:06:23;94462.34;;;-1.00;100.00
43553;BME280;29153;42.696;23.218;2023-12-20T08:08:51;94461.02;;;-0.93;100.00
43553;BME280;29153;42.696;23.218;2023-12-20T08:11:18;94448.16;;;-0.75;100.00
43553;BME280;29153;42.696;23.218;2023-12-20T08:13:46;94448.61;;;-0.62;100.00
43553;BME280;29153;42.696;23.218;2023-12-20T08:16:13;94445.17;;;-0.34;100.00
43553;BME280;29153;42.696;23.218;2023-12-20T08:18:42;94443.16;;;-0.10;100.00
43553;BME280;29153;42.696;23.218;2023-12-20T08:21:09;94449.13;;;0.22;100.00
43553;BME280;29153;42.696;23.218;2023-12-20T08:23:38;94445.36;;;0.34;100.00
43553;BME280;29153;42.696;23.218;2023-12-20T08:26:06;94447.33;;;0.23;100.00
43553;BME280;29153;42.696;23.218;2023-12-20T08:28:34;94446.80;;;0.30;100.00
43553;BME280;29153;42.696;23.218;2023-12-20T08:31:01;94441.45;;;0.18;100.00
43553;BME280;29153;42.696;23.218;2023-12-20T08:33:29;94441.16;;;0.33;100.00
43553;BME280;29153;42.696;23.218;2023-12-20T08:35:57;94433.46;;;-0.34;100.00
43553;BME280;29153;42.696;23.218;2023-12-20T08:38:24;94438.72;;;-0.40;100.00
43553;BME280;29153;42.696;23.218;2023-12-20T08:40:52;94422.98;;;-0.36;100.00
43553;BME280;29153;42.696;23.218;2023-12-20T08:43:19;94425.19;;;-0.18;100.00
43553;BME280;29153;42.696;23.218;2023-12-20T08:45:46;94423.18;;;-0.38;100.00
43553;BME280;29153;42.696;23.218;2023-12-20T08:48:14;94415.80;;;-0.25;100.00
43553;BME280;29153;42.696;23.218;2023-12-20T08:50:42;94413.92;;;-0.12;100.00
43553;BME280;29153;42.696;23.218;2023-12-20T08:53:10;94413.34;;;-0.14;100.00
43553;BME280;29153;42.696;23.218;2023-12-20T08:55:38;94407.66;;;-0.20;100.00
43553;BME280;29153;42.696;23.218;2023-12-20T08:58:05;94325.25;;;-0.57;100.00
43553;BME280;29153;42.696;23.218;2023-12-20T09:00:34;94406.41;;;-0.11;100.00
43553;BME280;29153;42.696;23.218;2023-12-20T09:03:03;94399.75;;;0.09;100.00
43553;BME280;29153;42.696;23.218;2023-12-20T09:05:30;94395.05;;;0.09;100.00
43553;BME280;29153;42.696;23.218;2023-12-20T09:07:58;94392.07;;;0.05;100.00
43553;BME280;29153;42.696;23.218;2023-12-20T09:10:25;94375.54;;;-0.07;100.00
43553;BME280;29153;42.696;23.218;2023-12-20T09:12:53;94366.97;;;0.02;100.00
43553;BME280;29153;42.696;23.218;2023-12-20T09:15:24;94358.78;;;0.23;100.00
43553;BME280;29153;42.696;23.218;2023-12-20T09:17:52;94355.61;;;0.21;100.00
43553;BME280;29153;42.696;23.218;2023-12-20T09:20:20;94347.67;;;0.34;100.00
43553;BME280;29153;42.696;23.218;2023-12-20T09:22:50;94332.92;;;0.46;100.00
43553;BME280;29153;42.696;23.218;2023-12-20T09:25:17;94335.09;;;0.49;100.00
43553;BME280;29153;42.696;23.218;2023-12-20T09:27:45;94321.48;;;0.65;100.00
43553;BME280;29153;42.696;23.218;2023-12-20T09:30:13;94229.14;;;0.16;100.00
43553;BME280;29153;42.696;23.218;2023-12-20T09:32:40;94326.69;;;0.56;100.00
43553;BME280;29153;42.696;23.218;2023-12-20T09:35:08;94311.06;;;0.74;100.00
43553;BME280;29153;42.696;23.218;2023-12-20T09:37:36;94323.87;;;0.49;100.00
43553;BME280;29153;42.696;23.218;2023-12-20T09:40:04;94310.91;;;0.69;100.00
43553;BME280;29153;42.696;23.218;2023-12-20T09:42:53;94300.34;;;0.73;100.00
43553;BME280;29153;42.696;23.218;2023-12-20T09:45:21;94299.83;;;0.83;100.00
43553;BME280;29153;42.696;23.218;2023-12-20T09:47:50;94298.23;;;0.91;100.00
43553;BME280;29153;42.696;23.218;2023-12-20T09:50:20;94285.98;;;1.01;100.00
43553;BME280;29153;42.696;23.218;2023-12-20T09:52:53;94280.95;;;1.08;100.00
43553;BME280;29153;42.696;23.218;2023-12-20T09:55:22;94282.73;;;1.26;100.00
43553;BME280;29153;42.696;23.218;2023-12-20T09:57:52;94275.89;;;1.34;100.00
43553;BME280;29153;42.696;23.218;2023-12-20T10:00:24;94282.30;;;1.20;100.00
43553;BME280;29153;42.696;23.218;2023-12-20T10:02:59;94283.55;;;1.17;100.00
43553;BME280;29153;42.696;23.218;2023-12-20T10:05:33;94272.00;;;0.95;100.00
43553;BME280;29153;42.696;23.218;2023-12-20T10:08:05;94273.41;;;0.88;100.00
43553;BME280;29153;42.696;23.218;2023-12-20T10:10:41;94272.07;;;1.07;100.00
43553;BME280;29153;42.696;23.218;2023-12-20T10:13:11;94264.59;;;1.10;100.00
43553;BME280;29153;42.696;23.218;2023-12-20T10:15:39;94253.39;;;1.42;100.00
43553;BME280;29153;42.696;23.218;2023-12-20T10:18:07;94258.11;;;1.43;100.00
43553;BME280;29153;42.696;23.218;2023-12-20T10:20:35;94258.69;;;1.45;100.00
43553;BME280;29153;42.696;23.218;2023-12-20T10:23:03;94239.23;;;1.29;100.00
43553;BME280;29153;42.696;23.218;2023-12-20T10:25:32;94250.44;;;1.38;100.00
43553;BME280;29153;42.696;23.218;2023-12-20T10:30:38;94234.55;;;1.72;100.00
43553;BME280;29153;42.696;23.218;2023-12-20T10:33:13;94223.34;;;1.83;100.00
43553;BME280;29153;42.696;23.218;2023-12-20T10:35:38;94217.88;;;2.08;100.00
43553;BME280;29153;42.696;23.218;2023-12-20T10:38:07;94211.97;;;2.13;100.00
43553;BME280;29153;42.696;23.218;2023-12-20T10:40:35;94210.05;;;1.97;100.00
43553;BME280;29153;42.696;23.218;2023-12-20T10:43:03;94205.27;;;1.94;100.00
43553;BME280;29153;42.696;23.218;2023-12-20T10:45:32;94195.77;;;2.02;100.00
43553;BME280;29153;42.696;23.218;2023-12-20T10:47:59;94188.63;;;2.09;100.00
43553;BME280;29153;42.696;23.218;2023-12-20T10:50:29;94186.97;;;2.17;100.00
43553;BME280;29153;42.696;23.218;2023-12-20T10:52:58;94192.31;;;2.22;100.00
43553;BME280;29153;42.696;23.218;2023-12-20T10:55:26;94183.85;;;2.17;100.00
43553;BME280;29153;42.696;23.218;2023-12-20T10:57:58;94181.50;;;2.18;100.00
43553;BME280;29153;42.696;23.218;2023-12-20T11:00:24;94186.18;;;2.42;100.00
43553;BME280;29153;42.696;23.218;2023-12-20T11:02:52;94176.93;;;2.37;100.00
43553;BME280;29153;42.696;23.218;2023-12-20T11:08:20;94173.66;;;2.30;100.00
43553;BME280;29153;42.696;23.218;2023-12-20T11:16:22;94150.73;;;2.60;100.00
43553;BME280;29153;42.696;23.218;2023-12-20T11:18:52;94156.89;;;2.68;100.00
43553;BME280;29153;42.696;23.218;2023-12-20T11:21:19;94140.81;;;2.62;100.00
43553;BME280;29153;42.696;23.218;2023-12-20T11:23:48;94142.95;;;2.65;100.00
43553;BME280;29153;42.696;23.218;2023-12-20T11:26:22;94133.77;;;2.63;100.00
43553;BME280;29153;42.696;23.218;2023-12-20T11:28:49;94135.27;;;2.73;100.00
43553;BME280;29153;42.696;23.218;2023-12-20T11:31:17;94130.78;;;2.71;100.00
43553;BME280;29153;42.696;23.218;2023-12-20T11:33:46;94111.55;;;2.77;100.00
43553;BME280;29153;42.696;23.218;2023-12-20T11:36:18;94114.58;;;2.71;100.00
43553;BME280;29153;42.696;23.218;2023-12-20T11:38:57;94102.33;;;2.74;100.00
43553;BME280;29153;42.696;23.218;2023-12-20T11:41:26;94105.91;;;2.68;100.00
43553;BME280;29153;42.696;23.218;2023-12-20T11:43:54;94097.06;;;2.86;100.00
43553;BME280;29153;42.696;23.218;2023-12-20T11:46:22;94092.56;;;2.84;100.00
43553;BME280;29153;42.696;23.218;2023-12-20T11:48:51;94091.84;;;3.03;100.00
43553;BME280;29153;42.696;23.218;2023-12-20T11:51:18;94083.02;;;2.92;100.00
43553;BME280;29153;42.696;23.218;2023-12-20T11:53:51;94072.62;;;2.95;100.00
43553;BME280;29153;42.696;23.218;2023-12-20T11:56:16;94068.63;;;3.09;100.00
43553;BME280;29153;42.696;23.218;2023-12-20T11:58:44;94073.41;;;3.12;100.00
43553;BME280;29153;42.696;23.218;2023-12-20T12:01:12;94067.49;;;3.19;100.00
43553;BME280;29153;42.696;23.218;2023-12-20T12:03:40;94057.23;;;3.15;100.00
43553;BME280;29153;42.696;23.218;2023-12-20T12:06:08;94050.84;;;3.25;100.00
43553;BME280;29153;42.696;23.218;2023-12-20T12:08:36;94046.23;;;3.32;100.00
43553;BME280;29153;42.696;23.218;2023-12-20T12:11:04;94041.84;;;3.18;100.00
43553;BME280;29153;42.696;23.218;2023-12-20T12:13:31;94041.42;;;3.07;100.00
43553;BME280;29153;42.696;23.218;2023-12-20T12:15:59;94024.72;;;3.30;100.00
43553;BME280;29153;42.696;23.218;2023-12-20T12:18:27;93990.61;;;3.03;100.00
43553;BME280;29153;42.696;23.218;2023-12-20T12:21:02;94027.42;;;3.16;100.00
43553;BME280;29153;42.696;23.218;2023-12-20T12:23:29;94013.56;;;3.18;100.00
43553;BME280;29153;42.696;23.218;2023-12-20T12:25:57;94011.97;;;2.98;100.00
43553;BME280;29153;42.696;23.218;2023-12-20T12:28:26;94012.30;;;3.04;100.00
43553;BME280;29153;42.696;23.218;2023-12-20T12:30:59;94006.42;;;2.94;100.00
43553;BME280;29153;42.696;23.218;2023-12-20T12:33:27;94004.13;;;2.81;100.00
43553;BME280;29153;42.696;23.218;2023-12-20T12:35:55;94005.06;;;2.92;100.00
43553;BME280;29153;42.696;23.218;2023-12-20T12:38:24;94010.94;;;2.99;100.00
43553;BME280;29153;42.696;23.218;2023-12-20T12:40:52;94008.33;;;2.99;100.00
43553;BME280;29153;42.696;23.218;2023-12-20T12:43:20;94006.53;;;3.02;100.00
43553;BME280;29153;42.696;23.218;2023-12-20T12:45:49;94007.12;;;3.06;100.00
43553;BME280;29153;42.696;23.218;2023-12-20T12:48:16;94005.94;;;2.97;100.00
43553;BME280;29153;42.696;23.218;2023-12-20T12:50:45;94002.53;;;2.97;100.00
43553;BME280;29153;42.696;23.218;2023-12-20T12:53:13;94001.84;;;3.04;100.00
43553;BME280;29153;42.696;23.218;2023-12-20T12:55:40;94000.15;;;3.12;100.00
43553;BME280;29153;42.696;23.218;2023-12-20T12:58:07;93995.50;;;3.00;100.00